METAR Data
IDs: Format: Raw Decoded Include TAF

Data at: 1618 UTC 03 Jun 2020

KUNO 031553Z AUTO 26007KT 10SM CLR 28/21 A3001 RMK AO2 SLP148 T02830206
KUNO 031453Z AUTO 26009KT 10SM CLR 27/19 A3002 RMK AO2 SLP152 T02670194 58001
KUNO 031353Z AUTO 25007KT 10SM CLR 25/19 A3004 RMK AO2 SLP158 T02500189
KUNO 031253Z AUTO 24005KT 10SM CLR 23/18 A3002 RMK AO2 SLP153 T02280183
KUNO 031153Z AUTO 22007KT 10SM CLR 20/18 A3003 RMK AO2 SLP154 T02000178 10200 20172 55001
KUNO 031053Z AUTO 25005KT 10SM CLR 19/17 A3002 RMK AO2 SLP152 T01940172
KUNO 030953Z AUTO 24005KT 10SM CLR 19/17 A3003 RMK AO2 SLP154 T01890167
KUNO 030853Z AUTO 24003KT 10SM CLR 19/17 A3003 RMK AO2 SLP155 T01890167 56010
KUNO 030753Z AUTO 00000KT 10SM CLR 18/16 A3003 RMK AO2 SLP157 T01830161
KUNO 030653Z AUTO 00000KT 10SM CLR 18/16 A3005 RMK AO2 SLP162 T01830161
KUNO 030553Z AUTO 00000KT 10SM CLR 19/16 A3006 RMK AO2 SLP166 T01890161 10278 20183 402940156 55000
KUNO 030453Z AUTO 23004KT 10SM CLR 21/16 A3005 RMK AO2 SLP164 T02060161
KUNO 030353Z AUTO 21006KT 10SM CLR 22/16 A3006 RMK AO2 SLP165 T02220161
KUNO 030253Z AUTO 21005KT 10SM CLR 23/16 A3006 RMK AO2 SLP166 T02280156 53004
KUNO 030153Z AUTO 19004KT 10SM CLR 24/16 A3005 RMK AO2 SLP164 T02390161
KUNO 022353Z AUTO 23004KT 10SM CLR 28/18 A3005 RMK AO2 SLP163 T02780178 10294 20272 56009
KUNO 022253Z AUTO 24005KT 10SM CLR 28/17 A3006 RMK AO2 SLP166 T02830172
KUNO 022153Z AUTO 20006KT 10SM CLR 29/17 A3007 RMK AO2 SLP168 T02890172
KUNO 022053Z AUTO 22010KT 10SM CLR 29/16 A3008 RMK AO2 SLP171 T02890161 58016
KUNO 021953Z AUTO 19008KT 10SM CLR 29/17 A3009 RMK AO2 SLP177 T02890167
KUNO 021853Z AUTO 19009KT 10SM CLR 28/18 A3011 RMK AO2 SLP183 T02830178
KUNO 021753Z AUTO 20008KT 10SM CLR 27/17 A3012 RMK AO2 SLP187 T02720172 10272 20183 56012
KUNO 021653Z AUTO VRB06KT 10SM CLR 27/17 A3013 RMK AO2 SLP192 T02670167
KUNO 021553Z AUTO 24007KT 10SM CLR 26/17 A3015 RMK AO2 SLP195 T02610167
KUNO 021453Z AUTO 24007KT 10SM CLR 25/16 A3016 RMK AO2 SLP201 T02500161 50004
KUNO 021353Z AUTO 24005KT 10SM CLR 22/16 A3016 RMK AO2 SLP203 T02220156
KUNO 021253Z AUTO 22003KT 10SM CLR 20/16 A3016 RMK AO2 SLP202 T02000156
KUNO 021153Z AUTO 00000KT 10SM CLR 19/16 A3015 RMK AO2 SLP197 T01890156 10200 20156 53010
KUNO 021053Z AUTO 00000KT 10SM CLR 16/14 A3013 RMK AO2 SLP193 T01560139
KUNO 020953Z AUTO 00000KT 10SM CLR 17/14 A3012 RMK AO2 SLP189 T01720144
KUNO 020853Z AUTO 23005KT 10SM CLR 18/14 A3012 RMK AO2 SLP187 T01830144 56008
KUNO 020753Z AUTO 23004KT 10SM CLR 18/14 A3013 RMK AO2 SLP189 T01830139
KUNO 020653Z AUTO 22004KT 10SM CLR 19/14 A3013 RMK AO2 SLP192 T01890139
KUNO 020553Z AUTO 20004KT 10SM CLR 20/14 A3014 RMK AO2 SLP195 T02000139 10267 20194 402720133 58006
KUNO 020453Z AUTO 23004KT 10SM CLR 20/14 A3016 RMK AO2 SLP202 T02000139